sensor_id;sensor_type;location;lat;lon;timestamp;temperature;humidity
35523;DHT22;61478;50.820;4.330;2022-11-20T00:01:30;7.20;99.90
35523;DHT22;61478;50.820;4.330;2022-11-20T00:03:58;7.20;99.90
35523;DHT22;61478;50.820;4.330;2022-11-20T00:06:25;7.30;99.90
35523;DHT22;61478;50.820;4.330;2022-11-20T00:08:54;7.30;99.90
35523;DHT22;61478;50.820;4.330;2022-11-20T00:11:22;7.40;99.90
35523;DHT22;61478;50.820;4.330;2022-11-20T00:13:51;7.50;99.90
35523;DHT22;61478;50.820;4.330;2022-11-20T00:16:27;7.60;99.90
35523;DHT22;61478;50.820;4.330;2022-11-20T00:19:02;7.60;99.90
35523;DHT22;61478;50.820;4.330;2022-11-20T00:21:34;7.70;99.90
35523;DHT22;61478;50.820;4.330;2022-11-20T00:24:00;7.60;99.90
35523;DHT22;61478;50.820;4.330;2022-11-20T00:26:27;7.50;99.90
35523;DHT22;61478;50.820;4.330;2022-11-20T00:29:00;7.40;99.90
35523;DHT22;61478;50.820;4.330;2022-11-20T00:31:29;7.40;99.90
35523;DHT22;61478;50.820;4.330;2022-11-20T00:33:59;7.30;99.90
35523;DHT22;61478;50.820;4.330;2022-11-20T00:36:27;7.40;99.90
35523;DHT22;61478;50.820;4.330;2022-11-20T00:38:54;7.40;99.90
35523;DHT22;61478;50.820;4.330;2022-11-20T00:41:21;7.50;99.90
35523;DHT22;61478;50.820;4.330;2022-11-20T00:43:48;7.40;99.90
35523;DHT22;61478;50.820;4.330;2022-11-20T00:46:16;7.40;99.90
35523;DHT22;61478;50.820;4.330;2022-11-20T00:48:43;7.40;99.90
35523;DHT22;61478;50.820;4.330;2022-11-20T00:51:14;7.50;99.90
35523;DHT22;61478;50.820;4.330;2022-11-20T00:53:40;7.60;99.90
35523;DHT22;61478;50.820;4.330;2022-11-20T00:56:13;7.60;99.90
35523;DHT22;61478;50.820;4.330;2022-11-20T00:58:45;7.60;99.90
35523;DHT22;61478;50.820;4.330;2022-11-20T01:01:17;7.60;99.90
35523;DHT22;61478;50.820;4.330;2022-11-20T01:03:45;7.50;99.90
35523;DHT22;61478;50.820;4.330;2022-11-20T01:06:25;7.60;99.90
35523;DHT22;61478;50.820;4.330;2022-11-20T01:08:53;7.60;99.90
35523;DHT22;61478;50.820;4.330;2022-11-20T01:11:22;7.50;99.90
35523;DHT22;61478;50.820;4.330;2022-11-20T01:13:50;7.60;99.90
35523;DHT22;61478;50.820;4.330;2022-11-20T01:16:19;7.40;99.90
35523;DHT22;61478;50.820;4.330;2022-11-20T01:18:48;7.30;99.90
35523;DHT22;61478;50.820;4.330;2022-11-20T01:21:27;7.20;99.90
35523;DHT22;61478;50.820;4.330;2022-11-20T01:24:00;7.20;99.90
35523;DHT22;61478;50.820;4.330;2022-11-20T01:26:28;7.00;99.90
35523;DHT22;61478;50.820;4.330;2022-11-20T01:28:55;6.60;99.90
35523;DHT22;61478;50.820;4.330;2022-11-20T01:31:36;6.70;99.90
35523;DHT22;61478;50.820;4.330;2022-11-20T01:34:08;6.90;99.90
35523;DHT22;61478;50.820;4.330;2022-11-20T01:36:36;7.00;99.90
35523;DHT22;61478;50.820;4.330;2022-11-20T01:39:05;6.90;99.90
35523;DHT22;61478;50.820;4.330;2022-11-20T01:41:33;6.90;99.90
35523;DHT22;61478;50.820;4.330;2022-11-20T01:44:21;6.80;99.90
35523;DHT22;61478;50.820;4.330;2022-11-20T01:47:14;7.10;99.90
35523;DHT22;61478;50.820;4.330;2022-11-20T01:49:50;7.20;99.90
35523;DHT22;61478;50.820;4.330;2022-11-20T01:52:31;6.90;99.90
35523;DHT22;61478;50.820;4.330;2022-11-20T01:55:11;6.60;99.90
35523;DHT22;61478;50.820;4.330;2022-11-20T01:57:46;6.40;99.90
35523;DHT22;61478;50.820;4.330;2022-11-20T02:00:21;6.10;99.90
35523;DHT22;61478;50.820;4.330;2022-11-20T02:03:06;6.10;99.90
35523;DHT22;61478;50.820;4.330;2022-11-20T02:05:51;5.90;99.90
35523;DHT22;61478;50.820;4.330;2022-11-20T02:08:23;6.00;99.90
35523;DHT22;61478;50.820;4.330;2022-11-20T02:10:54;6.00;99.90
35523;DHT22;61478;50.820;4.330;2022-11-20T02:13:30;5.80;99.90
35523;DHT22;61478;50.820;4.330;2022-11-20T02:16:39;5.80;99.90
35523;DHT22;61478;50.820;4.330;2022-11-20T02:19:09;5.80;99.90
35523;DHT22;61478;50.820;4.330;2022-11-20T02:24:22;5.70;99.90
35523;DHT22;61478;50.820;4.330;2022-11-20T02:26:54;5.60;99.90
35523;DHT22;61478;50.820;4.330;2022-11-20T02:29:32;5.50;99.90
35523;DHT22;61478;50.820;4.330;2022-11-20T02:32:00;5.40;99.90
35523;DHT22;61478;50.820;4.330;2022-11-20T02:34:28;5.30;99.90
35523;DHT22;61478;50.820;4.330;2022-11-20T02:36:58;5.20;99.90
35523;DHT22;61478;50.820;4.330;2022-11-20T02:39:28;5.30;99.90
35523;DHT22;61478;50.820;4.330;2022-11-20T02:41:57;5.30;99.90
35523;DHT22;61478;50.820;4.330;2022-11-20T02:44:30;5.30;99.90
35523;DHT22;61478;50.820;4.330;2022-11-20T02:47:02;5.40;99.90
35523;DHT22;61478;50.820;4.330;2022-11-20T02:49:30;5.50;99.90
35523;DHT22;61478;50.820;4.330;2022-11-20T02:51:56;5.40;99.90
35523;DHT22;61478;50.820;4.330;2022-11-20T02:54:23;5.40;99.90
35523;DHT22;61478;50.820;4.330;2022-11-20T02:56:49;5.60;99.90
35523;DHT22;61478;50.820;4.330;2022-11-20T02:59:18;5.50;99.90
35523;DHT22;61478;50.820;4.330;2022-11-20T03:01:58;5.70;99.90
35523;DHT22;61478;50.820;4.330;2022-11-20T03:04:27;5.60;99.90
35523;DHT22;61478;50.820;4.330;2022-11-20T03:06:58;5.50;99.90
35523;DHT22;61478;50.820;4.330;2022-11-20T03:09:25;5.40;99.90
35523;DHT22;61478;50.820;4.330;2022-11-20T03:11:54;5.30;99.90
35523;DHT22;61478;50.820;4.330;2022-11-20T03:14:20;5.40;99.90
35523;DHT22;61478;50.820;4.330;2022-11-20T03:16:52;5.50;99.90
35523;DHT22;61478;50.820;4.330;2022-11-20T03:19:21;5.60;99.90
35523;DHT22;61478;50.820;4.330;2022-11-20T03:21:52;5.50;99.90
35523;DHT22;61478;50.820;4.330;2022-11-20T03:24:19;5.60;99.90
35523;DHT22;61478;50.820;4.330;2022-11-20T03:26:47;5.50;99.90
35523;DHT22;61478;50.820;4.330;2022-11-20T03:29:13;5.50;99.90
35523;DHT22;61478;50.820;4.330;2022-11-20T03:31:40;5.40;99.90
35523;DHT22;61478;50.820;4.330;2022-11-20T03:34:08;5.50;99.90
35523;DHT22;61478;50.820;4.330;2022-11-20T03:36:42;5.70;99.90
35523;DHT22;61478;50.820;4.330;2022-11-20T03:39:09;5.60;99.90
35523;DHT22;61478;50.820;4.330;2022-11-20T03:41:41;5.60;99.90
35523;DHT22;61478;50.820;4.330;2022-11-20T03:44:15;5.50;99.90
35523;DHT22;61478;50.820;4.330;2022-11-20T03:46:43;5.60;99.90
35523;DHT22;61478;50.820;4.330;2022-11-20T03:49:10;5.70;99.90
35523;DHT22;61478;50.820;4.330;2022-11-20T03:51:41;5.90;99.90
35523;DHT22;61478;50.820;4.330;2022-11-20T03:54:12;6.30;99.90
35523;DHT22;61478;50.820;4.330;2022-11-20T03:56:41;6.30;99.90
35523;DHT22;61478;50.820;4.330;2022-11-20T03:59:10;6.50;99.90
35523;DHT22;61478;50.820;4.330;2022-11-20T04:01:40;6.50;99.90
35523;DHT22;61478;50.820;4.330;2022-11-20T04:04:06;6.40;99.90
35523;DHT22;61478;50.820;4.330;2022-11-20T04:06:36;6.60;99.90
35523;DHT22;61478;50.820;4.330;2022-11-20T04:09:06;6.50;99.90
35523;DHT22;61478;50.820;4.330;2022-11-20T04:11:34;6.30;99.90
35523;DHT22;61478;50.820;4.330;2022-11-20T04:14:03;6.10;99.90
35523;DHT22;61478;50.820;4.330;2022-11-20T04:16:35;6.10;99.90
35523;DHT22;61478;50.820;4.330;2022-11-20T04:19:04;6.10;99.90
35523;DHT22;61478;50.820;4.330;2022-11-20T04:21:30;6.10;99.90
35523;DHT22;61478;50.820;4.330;2022-11-20T04:23:56;6.10;99.90
35523;DHT22;61478;50.820;4.330;2022-11-20T04:26:25;6.30;99.90
35523;DHT22;61478;50.820;4.330;2022-11-20T04:28:51;6.30;99.90
35523;DHT22;61478;50.820;4.330;2022-11-20T04:31:28;6.30;99.90
35523;DHT22;61478;50.820;4.330;2022-11-20T04:34:03;6.40;99.90
35523;DHT22;61478;50.820;4.330;2022-11-20T04:36:30;6.50;99.90
35523;DHT22;61478;50.820;4.330;2022-11-20T04:38:58;6.50;99.90
35523;DHT22;61478;50.820;4.330;2022-11-20T04:41:26;6.40;99.90
35523;DHT22;61478;50.820;4.330;2022-11-20T04:43:54;6.40;99.90
35523;DHT22;61478;50.820;4.330;2022-11-20T04:46:25;6.40;99.90
35523;DHT22;61478;50.820;4.330;2022-11-20T04:48:51;6.50;99.90
35523;DHT22;61478;50.820;4.330;2022-11-20T04:51:23;6.40;99.90
35523;DHT22;61478;50.820;4.330;2022-11-20T04:53:50;6.50;99.90
35523;DHT22;61478;50.820;4.330;2022-11-20T04:56:17;6.50;99.90
35523;DHT22;61478;50.820;4.330;2022-11-20T04:58:43;6.50;99.90
35523;DHT22;61478;50.820;4.330;2022-11-20T05:01:17;6.50;99.90
35523;DHT22;61478;50.820;4.330;2022-11-20T05:03:44;6.50;99.90
35523;DHT22;61478;50.820;4.330;2022-11-20T05:06:14;6.50;99.90
35523;DHT22;61478;50.820;4.330;2022-11-20T05:08:41;6.60;99.90
35523;DHT22;61478;50.820;4.330;2022-11-20T05:11:15;6.70;99.90
35523;DHT22;61478;50.820;4.330;2022-11-20T05:13:41;6.80;99.90
35523;DHT22;61478;50.820;4.330;2022-11-20T05:16:13;6.70;99.90
35523;DHT22;61478;50.820;4.330;2022-11-20T05:18:40;6.60;99.90
35523;DHT22;61478;50.820;4.330;2022-11-20T05:21:07;6.70;99.90
35523;DHT22;61478;50.820;4.330;2022-11-20T05:23:33;6.60;99.90
35523;DHT22;61478;50.820;4.330;2022-11-20T05:25:59;6.70;99.90
35523;DHT22;61478;50.820;4.330;2022-11-20T05:28:27;6.80;99.90
35523;DHT22;61478;50.820;4.330;2022-11-20T05:30:56;6.60;99.90
35523;DHT22;61478;50.820;4.330;2022-11-20T05:33:42;6.50;99.90
35523;DHT22;61478;50.820;4.330;2022-11-20T05:36:08;6.30;99.90
35523;DHT22;61478;50.820;4.330;2022-11-20T05:38:35;6.20;99.90
35523;DHT22;61478;50.820;4.330;2022-11-20T05:41:11;6.10;99.90
35523;DHT22;61478;50.820;4.330;2022-11-20T05:43:43;5.90;99.90
35523;DHT22;61478;50.820;4.330;2022-11-20T05:46:17;5.80;99.90
35523;DHT22;61478;50.820;4.330;2022-11-20T05:48:50;5.80;99.90
35523;DHT22;61478;50.820;4.330;2022-11-20T05:51:19;5.80;99.90
35523;DHT22;61478;50.820;4.330;2022-11-20T05:53:45;5.80;99.90
35523;DHT22;61478;50.820;4.330;2022-11-20T05:56:13;6.10;99.90
35523;DHT22;61478;50.820;4.330;2022-11-20T05:58:40;6.10;99.90
35523;DHT22;61478;50.820;4.330;2022-11-20T06:01:16;6.10;99.90
35523;DHT22;61478;50.820;4.330;2022-11-20T06:03:43;6.10;99.90
35523;DHT22;61478;50.820;4.330;2022-11-20T06:06:11;6.10;99.90
35523;DHT22;61478;50.820;4.330;2022-11-20T06:08:37;6.00;99.90
35523;DHT22;61478;50.820;4.330;2022-11-20T06:11:05;5.90;99.90
35523;DHT22;61478;50.820;4.330;2022-11-20T06:13:31;5.90;99.90
35523;DHT22;61478;50.820;4.330;2022-11-20T06:16:00;6.00;99.90
35523;DHT22;61478;50.820;4.330;2022-11-20T06:18:29;6.20;99.90
35523;DHT22;61478;50.820;4.330;2022-11-20T06:21:06;6.30;99.90
35523;DHT22;61478;50.820;4.330;2022-11-20T06:23:33;6.30;99.90
35523;DHT22;61478;50.820;4.330;2022-11-20T06:26:10;6.20;99.90
35523;DHT22;61478;50.820;4.330;2022-11-20T06:28:36;6.10;99.90
35523;DHT22;61478;50.820;4.330;2022-11-20T06:31:02;6.00;99.90
35523;DHT22;61478;50.820;4.330;2022-11-20T06:33:28;6.10;99.90
35523;DHT22;61478;50.820;4.330;2022-11-20T06:35:59;6.30;99.90
35523;DHT22;61478;50.820;4.330;2022-11-20T06:38:26;6.30;99.90
35523;DHT22;61478;50.820;4.330;2022-11-20T06:40:55;6.40;99.90
35523;DHT22;61478;50.820;4.330;2022-11-20T06:43:23;6.40;99.90
35523;DHT22;61478;50.820;4.330;2022-11-20T06:45:53;6.40;99.90
35523;DHT22;61478;50.820;4.330;2022-11-20T06:48:19;6.50;99.90
35523;DHT22;61478;50.820;4.330;2022-11-20T06:50:46;6.50;99.90
35523;DHT22;61478;50.820;4.330;2022-11-20T06:53:11;6.50;99.90
35523;DHT22;61478;50.820;4.330;2022-11-20T06:55:42;6.40;99.90
35523;DHT22;61478;50.820;4.330;2022-11-20T06:58:09;6.30;99.90
35523;DHT22;61478;50.820;4.330;2022-11-20T07:00:35;6.30;99.90
35523;DHT22;61478;50.820;4.330;2022-11-20T07:03:09;6.30;99.90
35523;DHT22;61478;50.820;4.330;2022-11-20T07:05:35;6.20;99.90
35523;DHT22;61478;50.820;4.330;2022-11-20T07:08:03;6.20;99.90
35523;DHT22;61478;50.820;4.330;2022-11-20T07:10:29;6.20;99.90
35523;DHT22;61478;50.820;4.330;2022-11-20T07:12:58;6.30;99.90
35523;DHT22;61478;50.820;4.330;2022-11-20T07:15:25;6.60;99.90
35523;DHT22;61478;50.820;4.330;2022-11-20T07:17:52;6.80;99.90
35523;DHT22;61478;50.820;4.330;2022-11-20T07:20:18;6.90;99.90
35523;DHT22;61478;50.820;4.330;2022-11-20T07:22:44;6.80;99.90
35523;DHT22;61478;50.820;4.330;2022-11-20T07:25:10;6.90;99.90
35523;DHT22;61478;50.820;4.330;2022-11-20T07:27:36;7.00;99.90
35523;DHT22;61478;50.820;4.330;2022-11-20T07:30:05;7.00;99.90
35523;DHT22;61478;50.820;4.330;2022-11-20T07:32:34;7.00;99.90
35523;DHT22;61478;50.820;4.330;2022-11-20T07:34:59;7.10;99.90
35523;DHT22;61478;50.820;4.330;2022-11-20T07:37:25;7.00;99.90
35523;DHT22;61478;50.820;4.330;2022-11-20T07:39:51;6.80;99.90
35523;DHT22;61478;50.820;4.330;2022-11-20T07:42:23;6.70;99.90
35523;DHT22;61478;50.820;4.330;2022-11-20T07:44:52;6.80;99.90
35523;DHT22;61478;50.820;4.330;2022-11-20T07:47:18;6.80;99.90
35523;DHT22;61478;50.820;4.330;2022-11-20T07:49:46;6.80;99.90
35523;DHT22;61478;50.820;4.330;2022-11-20T07:52:17;6.90;99.90
35523;DHT22;61478;50.820;4.330;2022-11-20T07:54:43;7.00;99.90
35523;DHT22;61478;50.820;4.330;2022-11-20T07:57:10;7.00;99.90
35523;DHT22;61478;50.820;4.330;2022-11-20T07:59:36;7.00;99.90
35523;DHT22;61478;50.820;4.330;2022-11-20T08:02:05;7.00;99.90
35523;DHT22;61478;50.820;4.330;2022-11-20T08:04:31;6.80;99.90
35523;DHT22;61478;50.820;4.330;2022-11-20T08:06:59;7.00;99.90
35523;DHT22;61478;50.820;4.330;2022-11-20T08:09:28;7.00;99.90
35523;DHT22;61478;50.820;4.330;2022-11-20T08:11:59;7.00;99.90
35523;DHT22;61478;50.820;4.330;2022-11-20T08:14:43;7.00;99.90
35523;DHT22;61478;50.820;4.330;2022-11-20T08:17:09;6.90;99.90
35523;DHT22;61478;50.820;4.330;2022-11-20T08:19:41;6.90;99.90
35523;DHT22;61478;50.820;4.330;2022-11-20T08:22:14;6.80;99.90
35523;DHT22;61478;50.820;4.330;2022-11-20T08:24:43;6.90;99.90
35523;DHT22;61478;50.820;4.330;2022-11-20T08:27:15;7.00;99.90
35523;DHT22;61478;50.820;4.330;2022-11-20T08:29:41;7.10;99.90
35523;DHT22;61478;50.820;4.330;2022-11-20T08:32:16;7.10;99.90
35523;DHT22;61478;50.820;4.330;2022-11-20T08:34:47;7.00;99.90
35523;DHT22;61478;50.820;4.330;2022-11-20T08:37:13;7.20;99.90
35523;DHT22;61478;50.820;4.330;2022-11-20T08:39:40;7.10;99.90
35523;DHT22;61478;50.820;4.330;2022-11-20T08:42:09;7.10;99.90
35523;DHT22;61478;50.820;4.330;2022-11-20T08:44:40;7.10;99.90
35523;DHT22;61478;50.820;4.330;2022-11-20T08:47:09;7.20;99.90
35523;DHT22;61478;50.820;4.330;2022-11-20T08:49:36;7.30;99.90
35523;DHT22;61478;50.820;4.330;2022-11-20T08:52:05;7.30;99.90
35523;DHT22;61478;50.820;4.330;2022-11-20T08:54:31;7.30;99.90
35523;DHT22;61478;50.820;4.330;2022-11-20T08:56:57;7.30;99.90
35523;DHT22;61478;50.820;4.330;2022-11-20T08:59:23;7.30;99.90
35523;DHT22;61478;50.820;4.330;2022-11-20T09:01:48;7.20;99.90
35523;DHT22;61478;50.820;4.330;2022-11-20T09:04:21;7.20;99.90
35523;DHT22;61478;50.820;4.330;2022-11-20T09:06:47;7.30;99.90
35523;DHT22;61478;50.820;4.330;2022-11-20T09:09:17;7.20;99.90
35523;DHT22;61478;50.820;4.330;2022-11-20T09:11:44;7.30;99.90
35523;DHT22;61478;50.820;4.330;2022-11-20T09:14:13;7.30;99.90
35523;DHT22;61478;50.820;4.330;2022-11-20T09:16:44;7.40;99.90
35523;DHT22;61478;50.820;4.330;2022-11-20T09:19:16;7.50;99.90
35523;DHT22;61478;50.820;4.330;2022-11-20T09:21:45;7.50;99.90
35523;DHT22;61478;50.820;4.330;2022-11-20T09:24:12;7.60;99.90
35523;DHT22;61478;50.820;4.330;2022-11-20T09:26:41;7.60;99.90
35523;DHT22;61478;50.820;4.330;2022-11-20T09:29:12;7.70;99.90
35523;DHT22;61478;50.820;4.330;2022-11-20T09:31:50;7.70;99.90
35523;DHT22;61478;50.820;4.330;2022-11-20T09:34:18;7.70;99.90
35523;DHT22;61478;50.820;4.330;2022-11-20T09:36:44;7.70;99.90
35523;DHT22;61478;50.820;4.330;2022-11-20T09:39:10;7.80;99.90
35523;DHT22;61478;50.820;4.330;2022-11-20T09:42:13;7.80;99.90
35523;DHT22;61478;50.820;4.330;2022-11-20T09:44:58;7.90;99.90
35523;DHT22;61478;50.820;4.330;2022-11-20T09:47:42;8.00;99.90
35523;DHT22;61478;50.820;4.330;2022-11-20T09:50:32;8.00;99.90
35523;DHT22;61478;50.820;4.330;2022-11-20T09:53:20;8.00;99.90
35523;DHT22;61478;50.820;4.330;2022-11-20T09:55:49;8.00;99.90
35523;DHT22;61478;50.820;4.330;2022-11-20T09:58:41;8.10;99.90
35523;DHT22;61478;50.820;4.330;2022-11-20T10:01:23;8.10;99.90
35523;DHT22;61478;50.820;4.330;2022-11-20T10:06:59;8.20;99.90
35523;DHT22;61478;50.820;4.330;2022-11-20T10:09:38;8.30;99.90
35523;DHT22;61478;50.820;4.330;2022-11-20T10:21:13;8.40;99.90
35523;DHT22;61478;50.820;4.330;2022-11-20T10:24:03;8.40;99.90
35523;DHT22;61478;50.820;4.330;2022-11-20T10:27:17;8.50;99.90
35523;DHT22;61478;50.820;4.330;2022-11-20T10:30:10;8.60;99.90
35523;DHT22;61478;50.820;4.330;2022-11-20T10:32:42;8.70;99.90
35523;DHT22;61478;50.820;4.330;2022-11-20T10:35:22;8.70;99.90
35523;DHT22;61478;50.820;4.330;2022-11-20T10:38:02;8.70;99.90
35523;DHT22;61478;50.820;4.330;2022-11-20T10:40:39;8.80;99.90
35523;DHT22;61478;50.820;4.330;2022-11-20T10:43:24;8.90;99.90
35523;DHT22;61478;50.820;4.330;2022-11-20T10:46:03;9.00;99.90
35523;DHT22;61478;50.820;4.330;2022-11-20T10:48:31;8.90;99.90
35523;DHT22;61478;50.820;4.330;2022-11-20T10:56:47;9.00;99.90
35523;DHT22;61478;50.820;4.330;2022-11-20T10:59:38;9.00;99.90
35523;DHT22;61478;50.820;4.330;2022-11-20T11:02:24;9.00;99.90
35523;DHT22;61478;50.820;4.330;2022-11-20T11:04:53;9.00;99.90
35523;DHT22;61478;50.820;4.330;2022-11-20T11:07:36;9.00;99.90
35523;DHT22;61478;50.820;4.330;2022-11-20T11:13:18;9.00;99.90
35523;DHT22;61478;50.820;4.330;2022-11-20T11:15:45;9.00;99.90
35523;DHT22;61478;50.820;4.330;2022-11-20T11:18:32;9.10;99.90
35523;DHT22;61478;50.820;4.330;2022-11-20T11:21:03;9.10;99.90
35523;DHT22;61478;50.820;4.330;2022-11-20T11:23:42;9.10;99.90
35523;DHT22;61478;50.820;4.330;2022-11-20T11:26:22;9.20;99.90
35523;DHT22;61478;50.820;4.330;2022-11-20T11:28:56;9.20;99.90
35523;DHT22;61478;50.820;4.330;2022-11-20T11:31:29;9.20;99.90
35523;DHT22;61478;50.820;4.330;2022-11-20T11:34:06;9.20;99.90
35523;DHT22;61478;50.820;4.330;2022-11-20T11:36:35;9.20;99.90
35523;DHT22;61478;50.820;4.330;2022-11-20T11:39:03;9.00;99.90
35523;DHT22;61478;50.820;4.330;2022-11-20T11:41:39;8.90;99.90
35523;DHT22;61478;50.820;4.330;2022-11-20T11:55:34;8.90;99.90
35523;DHT22;61478;50.820;4.330;2022-11-20T11:58:47;8.80;99.90
35523;DHT22;61478;50.820;4.330;2022-11-20T12:06:25;8.80;99.90
35523;DHT22;61478;50.820;4.330;2022-11-20T12:08:59;8.70;99.90
35523;DHT22;61478;50.820;4.330;2022-11-20T12:14:27;8.50;99.90
35523;DHT22;61478;50.820;4.330;2022-11-20T12:16:54;8.50;99.90
35523;DHT22;61478;50.820;4.330;2022-11-20T12:19:24;8.50;99.90
35523;DHT22;61478;50.820;4.330;2022-11-20T12:30:20;8.40;99.90
35523;DHT22;61478;50.820;4.330;2022-11-20T12:33:12;8.50;99.90
35523;DHT22;61478;50.820;4.330;2022-11-20T12:41:53;8.40;99.90
35523;DHT22;61478;50.820;4.330;2022-11-20T12:50:28;8.40;99.90
35523;DHT22;61478;50.820;4.330;2022-11-20T12:53:31;8.40;99.90
35523;DHT22;61478;50.820;4.330;2022-11-20T13:01:50;8.50;99.90
35523;DHT22;61478;50.820;4.330;2022-11-20T13:07:14;8.60;99.90
35523;DHT22;61478;50.820;4.330;2022-11-20T13:09:57;8.60;99.90
35523;DHT22;61478;50.820;4.330;2022-11-20T13:12:35;8.60;99.90
35523;DHT22;61478;50.820;4.330;2022-11-20T13:15:22;8.50;99.90
35523;DHT22;61478;50.820;4.330;2022-11-20T13:18:05;8.50;99.90
35523;DHT22;61478;50.820;4.330;2022-11-20T13:20:44;8.50;99.90
35523;DHT22;61478;50.820;4.330;2022-11-20T13:23:34;8.50;99.90
35523;DHT22;61478;50.820;4.330;2022-11-20T13:26:27;8.50;99.90
35523;DHT22;61478;50.820;4.330;2022-11-20T13:29:10;8.50;99.90
35523;DHT22;61478;50.820;4.330;2022-11-20T13:31:41;8.40;99.90
35523;DHT22;61478;50.820;4.330;2022-11-20T13:34:25;8.40;99.90
35523;DHT22;61478;50.820;4.330;2022-11-20T13:36:58;8.40;99.90
35523;DHT22;61478;50.820;4.330;2022-11-20T13:39:32;8.40;99.90
35523;DHT22;61478;50.820;4.330;2022-11-20T13:42:01;8.40;99.90
35523;DHT22;61478;50.820;4.330;2022-11-20T13:46:58;8.40;99.90
35523;DHT22;61478;50.820;4.330;2022-11-20T13:49:34;8.50;99.90
35523;DHT22;61478;50.820;4.330;2022-11-20T14:00:30;8.40;99.90
35523;DHT22;61478;50.820;4.330;2022-11-20T14:03:07;8.50;99.90
35523;DHT22;61478;50.820;4.330;2022-11-20T14:05:56;8.50;99.90
35523;DHT22;61478;50.820;4.330;2022-11-20T14:08:42;8.40;99.90
35523;DHT22;61478;50.820;4.330;2022-11-20T14:11:25;8.40;99.90
35523;DHT22;61478;50.820;4.330;2022-11-20T14:13:59;8.40;99.90
35523;DHT22;61478;50.820;4.330;2022-11-20T14:16:33;8.50;99.90
35523;DHT22;61478;50.820;4.330;2022-11-20T14:19:25;8.40;99.90
35523;DHT22;61478;50.820;4.330;2022-11-20T14:24:49;8.50;99.90
35523;DHT22;61478;50.820;4.330;2022-11-20T14:27:26;8.50;99.90
35523;DHT22;61478;50.820;4.330;2022-11-20T14:29:54;8.40;99.90
35523;DHT22;61478;50.820;4.330;2022-11-20T14:32:25;8.40;99.90
35523;DHT22;61478;50.820;4.330;2022-11-20T14:34:54;8.40;99.90
35523;DHT22;61478;50.820;4.330;2022-11-20T14:37:24;8.50;99.90
35523;DHT22;61478;50.820;4.330;2022-11-20T14:39:56;8.50;99.90
35523;DHT22;61478;50.820;4.330;2022-11-20T14:42:28;8.50;99.90
35523;DHT22;61478;50.820;4.330;2022-11-20T14:44:59;8.50;99.90
35523;DHT22;61478;50.820;4.330;2022-11-20T14:47:27;8.50;99.90
35523;DHT22;61478;50.820;4.330;2022-11-20T14:49:59;8.50;99.90
35523;DHT22;61478;50.820;4.330;2022-11-20T14:52:27;8.50;99.90
35523;DHT22;61478;50.820;4.330;2022-11-20T14:54:58;8.50;99.90
35523;DHT22;61478;50.820;4.330;2022-11-20T14:57:29;8.60;99.90
35523;DHT22;61478;50.820;4.330;2022-11-20T15:02:44;8.60;99.90
35523;DHT22;61478;50.820;4.330;2022-11-20T15:05:11;8.60;99.90
35523;DHT22;61478;50.820;4.330;2022-11-20T15:07:43;8.60;99.90
35523;DHT22;61478;50.820;4.330;2022-11-20T15:10:25;8.70;99.90
35523;DHT22;61478;50.820;4.330;2022-11-20T15:12:52;8.70;99.90
35523;DHT22;61478;50.820;4.330;2022-11-20T15:17:56;8.70;99.90
35523;DHT22;61478;50.820;4.330;2022-11-20T15:20:29;8.80;99.90
35523;DHT22;61478;50.820;4.330;2022-11-20T15:22:55;8.80;99.90
35523;DHT22;61478;50.820;4.330;2022-11-20T15:25:21;9.00;99.90
35523;DHT22;61478;50.820;4.330;2022-11-20T15:27:55;9.00;99.90
35523;DHT22;61478;50.820;4.330;2022-11-20T15:30:22;8.90;99.90
35523;DHT22;61478;50.820;4.330;2022-11-20T15:32:48;8.90;99.90
35523;DHT22;61478;50.820;4.330;2022-11-20T15:35:14;8.90;99.90
35523;DHT22;61478;50.820;4.330;2022-11-20T15:37:41;8.90;99.90
35523;DHT22;61478;50.820;4.330;2022-11-20T15:40:08;8.90;99.90
35523;DHT22;61478;50.820;4.330;2022-11-20T15:42:34;9.00;99.90
35523;DHT22;61478;50.820;4.330;2022-11-20T15:45:00;9.00;99.90
35523;DHT22;61478;50.820;4.330;2022-11-20T15:47:34;9.00;99.90
35523;DHT22;61478;50.820;4.330;2022-11-20T15:50:00;9.00;99.90
35523;DHT22;61478;50.820;4.330;2022-11-20T15:52:26;9.00;99.90
35523;DHT22;61478;50.820;4.330;2022-11-20T15:54:52;9.00;99.90
35523;DHT22;61478;50.820;4.330;2022-11-20T15:57:18;9.00;99.90
35523;DHT22;61478;50.820;4.330;2022-11-20T15:59:44;9.00;99.90
35523;DHT22;61478;50.820;4.330;2022-11-20T16:02:15;9.00;99.90
35523;DHT22;61478;50.820;4.330;2022-11-20T16:04:41;9.10;99.90
35523;DHT22;61478;50.820;4.330;2022-11-20T16:07:07;9.10;99.90
35523;DHT22;61478;50.820;4.330;2022-11-20T16:09:33;9.10;99.90
35523;DHT22;61478;50.820;4.330;2022-11-20T16:11:59;9.20;99.90
35523;DHT22;61478;50.820;4.330;2022-11-20T16:14:26;9.40;99.90
35523;DHT22;61478;50.820;4.330;2022-11-20T16:17:11;9.50;99.90
35523;DHT22;61478;50.820;4.330;2022-11-20T16:19:37;9.40;99.90
35523;DHT22;61478;50.820;4.330;2022-11-20T16:22:03;9.30;99.90
35523;DHT22;61478;50.820;4.330;2022-11-20T16:24:29;9.20;99.90
35523;DHT22;61478;50.820;4.330;2022-11-20T16:26:56;9.20;99.90
35523;DHT22;61478;50.820;4.330;2022-11-20T16:29:22;9.20;99.90
35523;DHT22;61478;50.820;4.330;2022-11-20T16:31:48;9.20;99.90
35523;DHT22;61478;50.820;4.330;2022-11-20T16:34:15;9.20;99.90
35523;DHT22;61478;50.820;4.330;2022-11-20T16:36:42;9.20;99.90
35523;DHT22;61478;50.820;4.330;2022-11-20T16:39:10;9.10;99.90
35523;DHT22;61478;50.820;4.330;2022-11-20T16:41:36;9.10;99.90
35523;DHT22;61478;50.820;4.330;2022-11-20T16:44:07;9.10;99.90
35523;DHT22;61478;50.820;4.330;2022-11-20T16:46:33;9.10;99.90
35523;DHT22;61478;50.820;4.330;2022-11-20T16:49:01;9.10;99.90
35523;DHT22;61478;50.820;4.330;2022-11-20T16:51:28;9.10;99.90
35523;DHT22;61478;50.820;4.330;2022-11-20T16:53:54;9.00;99.90
35523;DHT22;61478;50.820;4.330;2022-11-20T16:56:23;9.10;99.90
35523;DHT22;61478;50.820;4.330;2022-11-20T16:58:50;9.00;99.90
35523;DHT22;61478;50.820;4.330;2022-11-20T17:01:18;9.10;99.90
35523;DHT22;61478;50.820;4.330;2022-11-20T17:03:50;9.10;99.90
35523;DHT22;61478;50.820;4.330;2022-11-20T17:06:20;9.10;99.90
35523;DHT22;61478;50.820;4.330;2022-11-20T17:08:47;9.10;99.90
35523;DHT22;61478;50.820;4.330;2022-11-20T17:11:17;9.10;99.90
35523;DHT22;61478;50.820;4.330;2022-11-20T17:13:44;9.10;99.90
35523;DHT22;61478;50.820;4.330;2022-11-20T17:16:17;9.10;99.90
35523;DHT22;61478;50.820;4.330;2022-11-20T17:18:43;9.10;99.90
35523;DHT22;61478;50.820;4.330;2022-11-20T17:21:10;9.00;99.90
35523;DHT22;61478;50.820;4.330;2022-11-20T17:23:40;9.00;99.90
35523;DHT22;61478;50.820;4.330;2022-11-20T17:26:12;9.00;99.90
35523;DHT22;61478;50.820;4.330;2022-11-20T17:28:44;8.90;99.90
35523;DHT22;61478;50.820;4.330;2022-11-20T17:31:13;8.90;99.90
35523;DHT22;61478;50.820;4.330;2022-11-20T17:33:40;8.80;99.90
35523;DHT22;61478;50.820;4.330;2022-11-20T17:36:08;8.80;99.90
35523;DHT22;61478;50.820;4.330;2022-11-20T17:38:34;8.80;99.90
35523;DHT22;61478;50.820;4.330;2022-11-20T17:41:05;8.80;99.90
35523;DHT22;61478;50.820;4.330;2022-11-20T17:43:32;8.80;99.90